Time;durP1;ratioP1;P1;durP2;ratioP2;P2;SDS_P1;SDS_P2;PMS_P1;PMS_P2;Temp;Humidity;BMP_temperature;BMP_pressure;BME280_temperature;BME280_humidity;BME280_pressure;Samples;Min_cycle;Max_cycle;Signal;HPM_P1;HPM_P2
2021/06/28 00:00:35;;;;;;;6.47;5.08;;;22.50;99.90;;;;;;1910050;74;21094;-69
2021/06/28 00:03:03;;;;;;;5.62;5.10;;;22.50;99.90;;;;;;1918895;71;21125;-70
2021/06/28 00:05:31;;;;;;;6.58;5.10;;;22.40;99.90;;;;;;1915066;73;21125;-70
2021/06/28 00:07:58;;;;;;;9.38;5.10;;;22.40;99.90;;;;;;1922958;73;21164;-70
2021/06/28 00:10:28;;;;;;;7.08;5.08;;;22.30;99.90;;;;;;1922967;73;21067;-71
2021/06/28 00:12:58;;;;;;;7.95;4.97;;;22.30;99.90;;;;;;1935423;73;21062;-69
2021/06/28 00:15:32;;;;;;;7.10;4.90;;;22.30;99.90;;;;;;1926472;73;21104;-69
2021/06/28 00:18:00;;;;;;;5.80;5.25;;;22.30;99.90;;;;;;1931850;73;21051;-70
2021/06/28 00:20:28;;;;;;;6.87;5.25;;;22.20;99.90;;;;;;1890380;73;21110;-70
2021/06/28 00:22:56;;;;;;;6.42;5.10;;;22.30;99.90;;;;;;1908322;73;22069;-70
2021/06/28 00:25:24;;;;;;;7.65;5.67;;;22.30;99.90;;;;;;1915327;73;21072;-70
2021/06/28 00:27:52;;;;;;;9.43;5.58;;;22.30;99.90;;;;;;1917264;73;21634;-71
2021/06/28 00:30:21;;;;;;;7.45;5.20;;;22.30;99.90;;;;;;1934901;73;21095;-70
2021/06/28 00:32:51;;;;;;;10.88;6.58;;;22.20;99.90;;;;;;1922881;73;21063;-71
2021/06/28 00:35:20;;;;;;;7.30;5.58;;;22.20;99.90;;;;;;1889387;76;21039;-69
2021/06/28 00:37:49;;;;;;;7.35;6.05;;;22.20;99.90;;;;;;1919534;73;21037;-70
2021/06/28 00:40:18;;;;;;;7.17;5.85;;;22.10;99.90;;;;;;1943623;73;21007;-70
2021/06/28 00:42:46;;;;;;;9.55;5.83;;;22.20;99.90;;;;;;1941084;73;21055;-69
2021/06/28 00:45:22;;;;;;;7.42;5.65;;;22.20;99.90;;;;;;1945558;73;21533;-70
2021/06/28 00:47:52;;;;;;;8.08;6.87;;;22.20;99.90;;;;;;1932118;73;21525;-70
2021/06/28 00:50:21;;;;;;;8.50;6.15;;;22.20;99.90;;;;;;1924658;74;21111;-70
2021/06/28 00:52:52;;;;;;;8.03;6.10;;;22.20;99.90;;;;;;1936498;73;21115;-70
2021/06/28 00:55:20;;;;;;;7.87;5.83;;;22.20;99.90;;;;;;1927362;73;21538;-71
2021/06/28 00:57:47;;;;;;;7.03;6.00;;;22.20;99.90;;;;;;1928046;73;21176;-70
2021/06/28 01:00:15;;;;;;;7.03;6.22;;;22.20;99.90;;;;;;1935554;73;21085;-70
2021/06/28 01:02:44;;;;;;;6.75;6.05;;;22.20;99.90;;;;;;1937720;73;21181;-70
2021/06/28 01:05:14;;;;;;;7.25;6.12;;;22.10;99.90;;;;;;1932304;73;21596;-71
2021/06/28 01:07:43;;;;;;;7.47;6.67;;;22.10;99.90;;;;;;1916007;73;21083;-70
2021/06/28 01:10:12;;;;;;;6.35;5.72;;;22.10;99.90;;;;;;1913814;73;21035;-71
2021/06/28 01:12:40;;;;;;;7.30;5.60;;;22.10;99.90;;;;;;1928756;73;21114;-70
2021/06/28 01:15:09;;;;;;;10.93;6.03;;;22.10;99.90;;;;;;1941981;73;21532;-70
2021/06/28 01:17:38;;;;;;;6.97;6.28;;;22.00;99.90;;;;;;1941876;73;21197;-70
2021/06/28 01:20:20;;;;;;;8.53;6.20;;;22.00;99.90;;;;;;1951708;73;21054;-70
2021/06/28 01:22:54;;;;;;;6.80;6.10;;;22.00;99.90;;;;;;1942570;73;21121;-68
2021/06/28 01:25:28;;;;;;;6.55;5.70;;;21.90;99.90;;;;;;1909491;73;21160;-70
2021/06/28 01:27:56;;;;;;;8.65;5.90;;;21.90;99.90;;;;;;1944008;73;21159;-70
2021/06/28 01:30:29;;;;;;;6.15;5.55;;;21.80;99.90;;;;;;1941422;73;21094;-70
2021/06/28 01:32:55;;;;;;;;;;;21.80;99.90;;;;;;1930599;74;21233;-70
2021/06/28 01:35:23;;;;;;;6.87;6.17;;;21.80;99.90;;;;;;1927184;73;20222;-70
2021/06/28 01:37:51;;;;;;;8.45;6.20;;;21.80;99.90;;;;;;1911980;74;21493;-70
2021/06/28 01:40:19;;;;;;;7.97;7.15;;;21.80;99.90;;;;;;1887973;75;21105;-70
2021/06/28 01:42:48;;;;;;;8.18;6.10;;;21.70;99.90;;;;;;1913990;73;21115;-69
2021/06/28 01:45:19;;;;;;;6.90;5.90;;;21.70;99.90;;;;;;1926604;73;21083;-70
2021/06/28 01:47:48;;;;;;;8.05;6.33;;;21.70;99.90;;;;;;1942302;73;21664;-69
2021/06/28 01:50:18;;;;;;;6.83;5.90;;;21.70;99.90;;;;;;1942588;73;21147;-71
2021/06/28 01:52:46;;;;;;;6.70;6.03;;;21.70;99.90;;;;;;1952285;73;21117;-70
2021/06/28 01:55:16;;;;;;;7.55;6.20;;;21.70;99.90;;;;;;1926434;73;21561;-69
2021/06/28 01:57:46;;;;;;;7.85;6.20;;;21.60;99.90;;;;;;1921041;74;21059;-69
2021/06/28 02:00:18;;;;;;;7.80;6.30;;;21.60;99.90;;;;;;1924539;73;21592;-69
2021/06/28 02:03:04;;;;;;;9.50;6.72;;;21.60;99.90;;;;;;1922832;73;21735;-69
2021/06/28 02:05:34;;;;;;;9.50;6.20;;;21.60;99.90;;;;;;1908282;73;21477;-69
2021/06/28 02:08:04;;;;;;;8.35;6.60;;;21.50;99.90;;;;;;1922369;73;21040;-69
2021/06/28 02:10:32;;;;;;;7.67;6.42;;;21.50;99.90;;;;;;1929156;73;21121;-68
2021/06/28 02:12:59;;;;;;;8.18;5.87;;;21.50;99.90;;;;;;1930723;73;21147;-68
2021/06/28 02:15:30;;;;;;;10.03;5.95;;;21.50;99.90;;;;;;1929535;73;21045;-69
2021/06/28 02:17:58;;;;;;;7.10;5.72;;;21.50;99.90;;;;;;1942681;73;21050;-69
2021/06/28 02:20:27;;;;;;;7.70;6.28;;;21.50;99.90;;;;;;1935908;73;21077;-70
2021/06/28 02:22:56;;;;;;;6.30;5.70;;;21.50;99.90;;;;;;1924751;73;21131;-70
2021/06/28 02:25:24;;;;;;;8.13;6.40;;;21.50;99.90;;;;;;1916087;73;22156;-69
2021/06/28 02:27:51;;;;;;;9.10;6.35;;;21.50;99.90;;;;;;1922609;73;21040;-70
2021/06/28 02:30:19;;;;;;;7.12;6.10;;;21.50;99.90;;;;;;1915492;73;21104;-70
2021/06/28 02:32:46;;;;;;;6.92;6.22;;;21.50;99.90;;;;;;1911643;73;21113;-69
2021/06/28 02:35:14;;;;;;;11.50;6.35;;;21.50;99.90;;;;;;1918117;73;21087;-69
2021/06/28 02:37:42;;;;;;;7.58;5.90;;;21.50;99.90;;;;;;1911730;73;21567;-69
2021/06/28 02:40:13;;;;;;;11.05;6.45;;;21.50;99.90;;;;;;1943233;73;21599;-69
2021/06/28 02:42:41;;;;;;;9.23;6.50;;;21.50;99.90;;;;;;1935911;73;21125;-69
2021/06/28 02:45:10;;;;;;;8.45;6.80;;;21.40;99.90;;;;;;1920893;73;21148;-69
2021/06/28 02:47:39;;;;;;;9.33;6.67;;;21.40;99.90;;;;;;1921222;73;21102;-70
2021/06/28 02:50:12;;;;;;;7.40;6.30;;;21.30;99.90;;;;;;1921844;73;21079;-69
2021/06/28 02:52:41;;;;;;;9.50;6.87;;;21.30;99.90;;;;;;1920862;74;21091;-70
2021/06/28 02:55:10;;;;;;;10.13;7.12;;;21.30;99.90;;;;;;1923149;73;21472;-69
2021/06/28 02:57:38;;;;;;;7.30;6.45;;;21.30;99.90;;;;;;1935197;73;21168;-70
2021/06/28 03:00:09;;;;;;;8.23;7.00;;;21.20;99.90;;;;;;1924735;73;21527;-70
2021/06/28 03:02:37;;;;;;;9.43;7.00;;;21.20;99.90;;;;;;1912678;73;21573;-70
2021/06/28 03:05:07;;;;;;;9.70;6.70;;;21.20;99.90;;;;;;1921284;74;21172;-71
2021/06/28 03:07:35;;;;;;;8.83;7.28;;;21.20;99.90;;;;;;1921062;74;21172;-70
2021/06/28 03:10:06;;;;;;;11.80;6.67;;;21.20;99.90;;;;;;1918608;74;21072;-70
2021/06/28 03:12:33;;;;;;;9.05;6.62;;;21.20;99.90;;;;;;1929394;73;21788;-69
2021/06/28 03:15:01;;;;;;;9.65;6.72;;;21.20;99.90;;;;;;1904194;73;21062;-69
2021/06/28 03:17:30;;;;;;;7.60;6.65;;;21.20;99.90;;;;;;1940832;73;21058;-69
2021/06/28 03:19:57;;;;;;;9.10;6.92;;;21.20;99.90;;;;;;1903727;73;21153;-69
2021/06/28 03:22:25;;;;;;;10.38;7.33;;;21.20;99.90;;;;;;1905108;73;21054;-69
2021/06/28 03:24:53;;;;;;;9.85;7.30;;;21.30;99.90;;;;;;1943309;72;21508;-68
2021/06/28 03:27:21;;;;;;;10.90;7.17;;;21.30;99.90;;;;;;1936033;73;21087;-69
2021/06/28 03:29:49;;;;;;;9.35;7.30;;;21.30;99.90;;;;;;1931699;73;21002;-69
2021/06/28 03:32:17;;;;;;;10.00;7.30;;;21.30;99.90;;;;;;1940389;73;21244;-69
2021/06/28 03:34:44;;;;;;;9.88;7.87;;;21.40;99.90;;;;;;1943105;74;21089;-69
2021/06/28 03:37:12;;;;;;;8.88;7.25;;;21.40;99.90;;;;;;1918978;73;21231;-69
2021/06/28 03:39:40;;;;;;;10.43;7.42;;;21.40;99.90;;;;;;1926344;73;21062;-68
2021/06/28 03:42:08;;;;;;;8.28;7.37;;;21.40;99.90;;;;;;1933717;73;21106;-69
2021/06/28 03:44:35;;;;;;;8.68;7.15;;;21.50;99.90;;;;;;1916704;73;21095;-69
2021/06/28 03:47:03;;;;;;;8.43;7.37;;;21.50;99.90;;;;;;1884664;74;21095;-69
2021/06/28 03:49:30;;;;;;;8.03;7.10;;;21.50;99.90;;;;;;1918689;73;21090;-68
2021/06/28 03:51:58;;;;;;;11.78;7.30;;;21.50;99.90;;;;;;1935695;73;21046;-69
2021/06/28 03:54:26;;;;;;;9.05;7.28;;;21.60;99.90;;;;;;1921568;74;21514;-69
2021/06/28 03:56:54;;;;;;;11.48;6.65;;;21.60;99.90;;;;;;1925062;74;21066;-70
2021/06/28 03:59:21;;;;;;;10.20;7.17;;;21.60;99.90;;;;;;1949866;73;21199;-69
2021/06/28 04:01:49;;;;;;;8.48;6.50;;;21.60;99.90;;;;;;1920490;73;21521;-69
2021/06/28 04:04:17;;;;;;;8.48;6.85;;;21.60;99.90;;;;;;1934231;73;21096;-70
2021/06/28 04:06:44;;;;;;;7.17;6.20;;;21.60;99.90;;;;;;1933914;73;21178;-71
2021/06/28 04:09:12;;;;;;;8.38;6.80;;;21.70;99.90;;;;;;1914988;73;21106;-70
2021/06/28 04:11:39;;;;;;;11.05;7.20;;;21.70;99.90;;;;;;1933688;73;21685;-69
2021/06/28 04:14:07;;;;;;;9.33;6.90;;;21.70;99.90;;;;;;1928134;73;21635;-70
2021/06/28 04:16:34;;;;;;;7.70;6.75;;;21.70;99.90;;;;;;1942923;73;21101;-70
2021/06/28 04:19:02;;;;;;;12.63;6.90;;;21.70;99.90;;;;;;1925826;73;21241;-70
2021/06/28 04:21:32;;;;;;;8.38;6.60;;;21.70;99.90;;;;;;1921807;73;21091;-69
2021/06/28 04:24:02;;;;;;;7.65;6.62;;;21.70;99.90;;;;;;1920129;73;21138;-69
2021/06/28 04:26:29;;;;;;;7.95;6.25;;;21.70;99.90;;;;;;1921035;73;21533;-71
2021/06/28 04:28:57;;;;;;;10.58;6.85;;;21.80;99.90;;;;;;1942446;73;21153;-71
2021/06/28 04:31:24;;;;;;;7.87;6.90;;;21.80;99.90;;;;;;1929953;73;21099;-69
2021/06/28 04:33:52;;;;;;;9.58;7.78;;;21.80;99.90;;;;;;1943654;73;21147;-69
2021/06/28 04:36:20;;;;;;;14.95;7.62;;;21.80;99.90;;;;;;1944722;73;21090;-69
2021/06/28 04:38:47;;;;;;;11.20;7.87;;;21.80;99.90;;;;;;1906323;73;21111;-69
2021/06/28 04:41:15;;;;;;;8.63;7.05;;;21.80;99.90;;;;;;1941591;73;21143;-70
2021/06/28 04:43:42;;;;;;;9.48;6.92;;;21.90;99.90;;;;;;1933815;73;21571;-70
2021/06/28 04:46:10;;;;;;;16.07;7.42;;;21.90;99.90;;;;;;1939471;72;21050;-69
2021/06/28 04:48:37;;;;;;;8.28;6.87;;;21.90;99.90;;;;;;1943199;74;21043;-70
2021/06/28 04:51:05;;;;;;;9.35;7.58;;;22.00;99.90;;;;;;1933133;72;21091;-69
2021/06/28 04:53:33;;;;;;;10.72;7.83;;;22.00;99.90;;;;;;1898327;74;21130;-69
2021/06/28 04:56:04;;;;;;;9.98;7.62;;;22.00;99.90;;;;;;1927273;73;21097;-69
2021/06/28 04:58:30;;;;;;;13.93;7.78;;;22.00;99.90;;;;;;1952881;73;21112;-68
2021/06/28 05:00:57;;;;;;;11.15;7.58;;;21.90;99.90;;;;;;1945748;73;21081;-69
2021/06/28 05:03:25;;;;;;;12.07;7.90;;;22.00;99.90;;;;;;1935917;73;21140;-69
2021/06/28 05:05:52;;;;;;;11.88;7.40;;;22.00;99.90;;;;;;1911263;73;21159;-69
2021/06/28 05:08:20;;;;;;;11.95;8.60;;;22.10;99.90;;;;;;1933746;73;21160;-69
2021/06/28 05:10:48;;;;;;;12.68;8.13;;;22.10;99.90;;;;;;1920943;74;21387;-69
2021/06/28 05:13:15;;;;;;;10.10;7.70;;;22.10;99.90;;;;;;1910266;73;21083;-70
2021/06/28 05:15:42;;;;;;;12.98;8.38;;;22.20;99.90;;;;;;1909575;73;21094;-70
2021/06/28 05:18:10;;;;;;;10.05;7.80;;;22.20;99.90;;;;;;1922795;73;21102;-69
2021/06/28 05:20:37;;;;;;;10.13;8.33;;;22.20;99.90;;;;;;1934056;73;22222;-70
2021/06/28 05:23:05;;;;;;;12.65;8.48;;;22.20;99.90;;;;;;1941343;73;21062;-70
2021/06/28 05:25:32;;;;;;;10.78;8.15;;;22.20;99.90;;;;;;1921637;73;21075;-70
2021/06/28 05:28:00;;;;;;;9.93;8.13;;;22.20;99.90;;;;;;1933129;73;21534;-69
2021/06/28 05:30:27;;;;;;;9.55;7.92;;;22.20;99.90;;;;;;1926468;73;21097;-70
2021/06/28 05:32:55;;;;;;;9.48;7.90;;;22.30;99.90;;;;;;1926111;73;21079;-68
2021/06/28 05:35:22;;;;;;;10.63;8.73;;;22.30;99.90;;;;;;1920575;73;21154;-69
2021/06/28 05:37:50;;;;;;;14.35;8.60;;;22.30;99.90;;;;;;1922668;73;21118;-68
2021/06/28 05:40:17;;;;;;;11.57;8.58;;;22.30;99.90;;;;;;1915984;73;21125;-69
2021/06/28 05:42:47;;;;;;;23.30;8.43;;;22.30;99.90;;;;;;1948506;73;21117;-69
2021/06/28 05:45:14;;;;;;;11.22;8.70;;;22.30;99.90;;;;;;1905302;73;21161;-68
2021/06/28 05:47:42;;;;;;;14.13;8.68;;;22.30;99.90;;;;;;1925710;73;21160;-69
2021/06/28 05:50:14;;;;;;;11.08;8.20;;;22.30;99.90;;;;;;1919367;73;21157;-69
2021/06/28 05:52:40;;;;;;;11.78;8.15;;;22.30;99.90;;;;;;1916495;73;21188;-68
2021/06/28 05:55:08;;;;;;;14.60;8.35;;;22.30;99.90;;;;;;1920611;73;21062;-69
2021/06/28 05:57:35;;;;;;;13.18;8.85;;;22.40;99.90;;;;;;1932497;73;21097;-69
2021/06/28 06:00:07;;;;;;;14.07;8.95;;;22.40;99.90;;;;;;1937564;73;21168;-70
2021/06/28 06:02:35;;;;;;;14.10;9.08;;;22.40;99.90;;;;;;1931645;73;21136;-69
2021/06/28 06:05:07;;;;;;;10.93;9.15;;;22.40;99.90;;;;;;1930700;72;21111;-70
2021/06/28 06:07:32;;;;;;;10.82;8.80;;;22.40;99.90;;;;;;1922625;73;21171;-70
2021/06/28 06:10:00;;;;;;;9.50;8.30;;;22.50;99.90;;;;;;1921343;73;21503;-71
2021/06/28 06:12:27;;;;;;;11.20;9.05;;;22.50;99.90;;;;;;1919336;73;21448;-71
2021/06/28 06:14:55;;;;;;;17.30;9.15;;;22.50;99.90;;;;;;1908830;73;21180;-69
2021/06/28 06:17:23;;;;;;;12.40;8.90;;;22.50;99.90;;;;;;1934378;73;21190;-72
2021/06/28 06:19:51;;;;;;;19.30;9.25;;;22.50;99.90;;;;;;1921871;73;21375;-73
2021/06/28 06:22:18;;;;;;;15.30;9.50;;;22.50;99.90;;;;;;1923384;73;21540;-74
2021/06/28 06:24:46;;;;;;;10.60;9.45;;;22.50;99.90;;;;;;1927023;73;21112;-73
2021/06/28 06:27:13;;;;;;;12.93;9.63;;;22.60;99.90;;;;;;1921017;74;21086;-71
2021/06/28 06:29:41;;;;;;;12.00;8.80;;;22.60;99.90;;;;;;1922288;73;22220;-69
2021/06/28 06:32:09;;;;;;;14.25;8.83;;;22.60;99.90;;;;;;1925836;73;21102;-67
2021/06/28 06:34:36;;;;;;;13.72;8.98;;;22.60;99.90;;;;;;1930590;73;21108;-70
2021/06/28 06:37:04;;;;;;;13.45;8.73;;;22.70;99.90;;;;;;1947679;72;21132;-69
2021/06/28 06:39:32;;;;;;;13.25;8.55;;;22.70;99.90;;;;;;1926582;73;21102;-71
2021/06/28 06:42:00;;;;;;;9.78;8.53;;;22.50;99.90;;;;;;1916548;73;21170;-71
2021/06/28 06:44:28;;;;;;;13.38;9.05;;;22.60;99.90;;;;;;1919730;73;21205;-68
2021/06/28 06:46:55;;;;;;;13.62;9.50;;;22.60;99.90;;;;;;1918150;73;21130;-67
2021/06/28 06:49:23;;;;;;;9.68;8.65;;;22.60;99.90;;;;;;1923863;73;21591;-67
2021/06/28 06:51:52;;;;;;;10.32;8.80;;;22.60;99.90;;;;;;1928445;73;21153;-67
2021/06/28 06:54:20;;;;;;;12.40;9.78;;;22.70;99.90;;;;;;1921568;73;21117;-67
2021/06/28 06:56:47;;;;;;;10.53;9.43;;;22.70;99.90;;;;;;1921980;73;21207;-71
2021/06/28 06:59:15;;;;;;;10.45;8.78;;;22.70;99.90;;;;;;1924539;73;21113;-68
2021/06/28 07:01:42;;;;;;;11.25;8.93;;;22.70;99.90;;;;;;1928382;73;21062;-68
2021/06/28 07:04:10;;;;;;;11.10;8.63;;;22.80;99.90;;;;;;1922421;73;21563;-68
2021/06/28 07:06:38;;;;;;;12.53;9.58;;;22.80;99.90;;;;;;1923255;73;21583;-70
2021/06/28 07:09:05;;;;;;;12.13;9.50;;;22.80;99.90;;;;;;1921383;73;21198;-66
2021/06/28 07:11:33;;;;;;;12.30;9.83;;;22.90;99.90;;;;;;1931716;73;21082;-68
2021/06/28 07:14:00;;;;;;;10.85;9.30;;;22.90;99.90;;;;;;1926435;72;21061;-68
2021/06/28 07:16:31;;;;;;;15.32;9.28;;;22.90;99.90;;;;;;1919193;73;21121;-68
2021/06/28 07:19:00;;;;;;;12.28;9.38;;;22.90;99.90;;;;;;1910047;73;21101;-68
2021/06/28 07:21:29;;;;;;;11.93;9.38;;;23.00;99.90;;;;;;1925202;73;21043;-68
2021/06/28 07:23:57;;;;;;;11.20;9.05;;;23.00;99.90;;;;;;1918405;74;21032;-68
2021/06/28 07:26:25;;;;;;;11.63;9.33;;;23.00;99.90;;;;;;1920307;73;21076;-67
2021/06/28 07:28:54;;;;;;;12.23;9.25;;;23.10;99.90;;;;;;1916739;74;21030;-68
2021/06/28 07:31:22;;;;;;;10.70;8.70;;;23.20;99.90;;;;;;1923615;73;21556;-69
2021/06/28 07:33:49;;;;;;;11.83;9.00;;;23.20;99.90;;;;;;1923320;73;21356;-68
2021/06/28 07:36:17;;;;;;;11.18;8.93;;;23.20;99.90;;;;;;1938346;72;21106;-68
2021/06/28 07:38:44;;;;;;;13.08;8.95;;;23.30;99.90;;;;;;1935084;73;21178;-69
2021/06/28 07:41:12;;;;;;;12.68;8.48;;;23.30;99.90;;;;;;1941517;73;21051;-68
2021/06/28 07:43:39;;;;;;;10.80;8.90;;;23.40;99.90;;;;;;1939972;73;21141;-68
2021/06/28 07:46:07;;;;;;;10.13;8.68;;;23.50;99.90;;;;;;1935996;72;21520;-69
2021/06/28 07:48:35;;;;;;;11.10;8.48;;;23.50;99.90;;;;;;1931232;73;21105;-68
2021/06/28 07:51:03;;;;;;;10.75;8.08;;;23.60;99.90;;;;;;1932162;73;21539;-67
2021/06/28 07:53:30;;;;;;;11.53;8.40;;;23.70;99.90;;;;;;1937661;73;21232;-68
2021/06/28 07:56:13;;;;;;;10.03;8.55;;;23.80;99.90;;;;;;1924117;72;21054;-69
2021/06/28 07:58:27;;;;;;;9.48;8.35;;;23.80;99.90;;;;;;1934131;73;21122;-68
2021/06/28 08:00:55;;;;;;;9.98;8.23;;;23.90;99.90;;;;;;1941982;72;21152;-68
2021/06/28 08:03:22;;;;;;;9.60;7.67;;;23.90;99.90;;;;;;1951101;73;21050;-74
2021/06/28 08:05:50;;;;;;;11.25;8.08;;;24.00;99.90;;;;;;1938455;72;21171;-67
2021/06/28 08:08:17;;;;;;;8.18;7.30;;;24.00;99.90;;;;;;1928513;73;21243;-68
2021/06/28 08:10:45;;;;;;;11.45;8.38;;;24.10;99.90;;;;;;1938733;73;21086;-67
2021/06/28 08:13:12;;;;;;;9.05;7.80;;;24.20;99.90;;;;;;1946783;73;21132;-68
2021/06/28 08:15:40;;;;;;;9.78;8.03;;;24.20;99.90;;;;;;1939109;72;21588;-68
2021/06/28 08:18:07;;;;;;;10.58;7.80;;;24.30;99.90;;;;;;1942457;73;21593;-68
2021/06/28 08:20:37;;;;;;;12.07;8.33;;;24.20;99.90;;;;;;1928657;74;21035;-68
2021/06/28 08:23:05;;;;;;;10.45;7.40;;;24.30;99.90;;;;;;1931240;73;21055;-70
2021/06/28 08:25:33;;;;;;;12.53;7.75;;;24.30;99.90;;;;;;1935424;72;21107;-70
2021/06/28 08:28:00;;;;;;;8.38;7.15;;;24.30;99.90;;;;;;1939110;73;21103;-69
2021/06/28 08:30:28;;;;;;;10.60;6.85;;;24.40;99.90;;;;;;1931226;73;21523;-68
2021/06/28 08:32:55;;;;;;;9.48;7.22;;;24.50;99.90;;;;;;1949914;73;21090;-67
2021/06/28 08:35:23;;;;;;;12.93;8.00;;;24.50;99.90;;;;;;1940804;72;21101;-68
2021/06/28 08:37:50;;;;;;;10.28;7.37;;;24.50;99.90;;;;;;1935234;73;21556;-68
2021/06/28 08:40:17;;;;;;;12.75;7.75;;;24.60;99.90;;;;;;1941669;73;21099;-69
2021/06/28 08:42:45;;;;;;;9.78;7.75;;;24.60;99.90;;;;;;1937370;73;21068;-68
2021/06/28 08:45:15;;;;;;;8.38;7.50;;;24.70;99.90;;;;;;1938382;72;21130;-68
2021/06/28 08:47:43;;;;;;;9.03;7.80;;;24.70;99.90;;;;;;1937568;73;21106;-69
2021/06/28 08:50:11;;;;;;;8.85;6.80;;;24.70;99.90;;;;;;1932952;73;21070;-68
2021/06/28 08:52:42;;;;;;;8.05;6.70;;;24.80;99.90;;;;;;1941305;73;21536;-68
2021/06/28 08:55:11;;;;;;;10.65;7.22;;;24.90;99.90;;;;;;1938048;72;21046;-68
2021/06/28 08:57:39;;;;;;;8.63;7.72;;;24.90;99.90;;;;;;1935357;73;21556;-68
2021/06/28 09:00:09;;;;;;;10.35;7.97;;;25.00;99.90;;;;;;1929780;73;21594;-68
2021/06/28 09:02:36;;;;;;;9.38;7.92;;;25.10;99.90;;;;;;1930833;73;21006;-67
2021/06/28 09:05:07;;;;;;;11.93;7.55;;;25.20;99.90;;;;;;1929458;72;21050;-67
2021/06/28 09:07:34;;;;;;;11.18;7.65;;;25.30;99.90;;;;;;1940066;73;21487;-68
2021/06/28 09:10:03;;;;;;;8.05;7.15;;;25.30;99.90;;;;;;1941120;73;21078;-68
2021/06/28 09:12:30;;;;;;;9.25;7.60;;;25.40;99.90;;;;;;1938608;73;21077;-66
2021/06/28 09:15:00;;;;;;;9.75;7.40;;;25.40;99.90;;;;;;1937379;72;21152;-68
2021/06/28 09:17:31;;;;;;;10.05;6.97;;;25.50;99.90;;;;;;1935924;73;21097;-68
2021/06/28 09:20:20;;;;;;;9.30;7.47;;;25.60;99.90;;;;;;1923284;73;21111;-68
2021/06/28 09:22:49;;;;;;;7.75;7.05;;;25.60;99.90;;;;;;1942885;73;21098;-67
2021/06/28 09:25:38;;;;;;;9.88;7.00;;;25.70;99.90;;;;;;1939116;72;21631;-68
2021/06/28 09:28:06;;;;;;;11.57;6.60;;;25.80;99.90;;;;;;1935756;73;22214;-67
2021/06/28 09:30:49;;;;;;;9.78;6.58;;;25.80;99.90;;;;;;1937341;73;21043;-66
2021/06/28 09:33:10;;;;;;;8.60;6.12;;;25.90;99.90;;;;;;1935307;73;21195;-67
2021/06/28 09:35:42;;;;;;;6.83;5.50;;;26.00;99.90;;;;;;1937883;73;21097;-71
2021/06/28 09:38:29;;;;;;;7.75;5.47;;;26.10;99.90;;;;;;1925509;73;21066;-70
2021/06/28 09:40:56;;;;;;;10.30;5.58;;;26.10;99.90;;;;;;1941276;73;21676;-67
2021/06/28 09:43:27;;;;;;;8.70;5.80;;;26.20;99.90;;;;;;1940529;73;21067;-66
2021/06/28 09:45:57;;;;;;;7.78;6.03;;;26.30;99.90;;;;;;1945138;72;21377;-67
2021/06/28 09:48:28;;;;;;;7.55;5.33;;;26.40;99.90;;;;;;1933695;73;21560;-67
2021/06/28 09:51:21;;;;;;;6.05;5.42;;;26.40;99.90;;;;;;1936169;73;21169;-67
2021/06/28 09:53:51;;;;;;;8.33;5.17;;;26.50;99.90;;;;;;1943904;73;21575;-67
2021/06/28 09:56:33;;;;;;;7.25;5.45;;;26.50;99.90;;;;;;1938919;72;21627;-66
2021/06/28 09:59:09;;;;;;;11.18;5.72;;;26.50;99.90;;;;;;1940151;73;21343;-65
2021/06/28 10:01:36;;;;;;;8.95;5.30;;;26.60;99.90;;;;;;1924923;73;21163;-67
2021/06/28 10:04:04;;;;;;;5.53;5.03;;;26.60;99.90;;;;;;1943745;73;21109;-68
2021/06/28 10:06:32;;;;;;;6.55;5.40;;;26.70;99.90;;;;;;1942514;72;21235;-67
2021/06/28 10:09:10;;;;;;;9.73;5.25;;;26.80;99.90;;;;;;1930301;74;21145;-68
2021/06/28 10:11:45;;;;;;;6.97;5.12;;;26.80;99.90;;;;;;1941794;73;21030;-69
2021/06/28 10:14:13;;;;;;;7.10;4.90;;;26.90;99.20;;;;;;1944391;73;20983;-68
2021/06/28 10:16:41;;;;;;;6.53;4.62;;;27.00;99.90;;;;;;1943060;72;21156;-68
2021/06/28 10:19:10;;;;;;;7.10;4.37;;;27.00;99.30;;;;;;1940039;73;21501;-68
2021/06/28 10:21:39;;;;;;;5.65;4.62;;;27.00;98.90;;;;;;1939985;73;21799;-67
2021/06/28 10:24:07;;;;;;;5.00;4.50;;;27.10;96.60;;;;;;1938402;73;21093;-68
2021/06/28 10:26:35;;;;;;;7.28;4.70;;;27.10;96.90;;;;;;1938624;72;21105;-69
2021/06/28 10:29:02;;;;;;;5.20;4.70;;;27.20;99.10;;;;;;1939877;73;21098;-68
2021/06/28 10:31:30;;;;;;;6.70;4.50;;;27.30;99.90;;;;;;1941099;73;21543;-68
2021/06/28 10:34:00;;;;;;;5.97;5.12;;;27.30;98.30;;;;;;1936201;73;21570;-68
2021/06/28 10:36:36;;;;;;;5.50;4.70;;;27.30;98.40;;;;;;1929916;72;21142;-67
2021/06/28 10:39:05;;;;;;;6.62;4.80;;;27.30;97.80;;;;;;1939742;73;21113;-69
2021/06/28 10:41:54;;;;;;;5.10;4.60;;;27.30;96.70;;;;;;1936842;73;21567;-69
2021/06/28 10:44:23;;;;;;;7.20;4.55;;;27.30;97.70;;;;;;1950895;73;21046;-69
2021/06/28 10:46:54;;;;;;;6.95;4.97;;;27.30;97.80;;;;;;1948006;72;21191;-69
2021/06/28 10:49:44;;;;;;;5.97;4.87;;;27.40;98.50;;;;;;1945634;73;21239;-70
2021/06/28 10:52:12;;;;;;;5.28;4.78;;;27.50;98.00;;;;;;1948301;73;21111;-71
2021/06/28 10:54:40;;;;;;;7.20;4.60;;;27.50;98.70;;;;;;1941634;73;21053;-72
2021/06/28 10:57:11;;;;;;;8.90;4.90;;;27.60;98.10;;;;;;1909464;72;21133;-70
2021/06/28 10:59:47;;;;;;;5.08;4.58;;;27.70;98.10;;;;;;1907526;73;21027;-67
2021/06/28 11:02:16;;;;;;;7.12;4.83;;;27.70;97.60;;;;;;1928631;73;21083;-69
2021/06/28 11:04:57;;;;;;;5.12;4.40;;;27.80;98.30;;;;;;1937294;73;21590;-68
2021/06/28 11:07:25;;;;;;;4.92;4.22;;;27.90;98.20;;;;;;1944986;73;22084;-67
2021/06/28 11:09:54;;;;;;;7.22;3.87;;;27.90;96.00;;;;;;1942047;73;21165;-68
2021/06/28 11:12:28;;;;;;;5.60;4.08;;;28.00;95.50;;;;;;1940453;74;21086;-67
2021/06/28 11:15:23;;;;;;;6.15;4.20;;;28.10;95.50;;;;;;1939124;72;21102;-68
2021/06/28 11:17:53;;;;;;;4.97;4.03;;;28.10;95.40;;;;;;1942800;73;21019;-68
2021/06/28 11:20:38;;;;;;;6.30;3.77;;;28.10;94.80;;;;;;1948236;73;21093;-68
2021/06/28 11:23:17;;;;;;;6.45;4.05;;;28.20;95.60;;;;;;1919561;73;21051;-68
2021/06/28 11:25:53;;;;;;;7.83;4.30;;;28.30;95.60;;;;;;1930868;73;21537;-69
2021/06/28 11:28:29;;;;;;;4.42;3.90;;;28.40;93.90;;;;;;1937819;73;21018;-67
2021/06/28 11:30:59;;;;;;;6.70;3.85;;;28.50;94.40;;;;;;1931331;73;21006;-68
2021/06/28 11:33:45;;;;;;;6.62;3.75;;;28.50;93.20;;;;;;1943831;73;21069;-68
2021/06/28 11:36:31;;;;;;;9.38;3.90;;;28.50;92.60;;;;;;1948742;72;21619;-69
2021/06/28 11:39:08;;;;;;;5.87;3.50;;;28.50;92.30;;;;;;1936863;73;21075;-69
2021/06/28 11:41:35;;;;;;;5.67;3.77;;;28.50;92.80;;;;;;1931115;73;21136;-70
2021/06/28 11:44:05;;;;;;;3.85;3.45;;;28.50;93.40;;;;;;1943555;73;21341;-69
2021/06/28 11:46:36;;;;;;;6.92;3.75;;;28.50;92.50;;;;;;1938704;73;21054;-69
2021/06/28 11:49:14;;;;;;;4.97;3.85;;;28.60;92.70;;;;;;1935391;73;21503;-69
2021/06/28 11:51:45;;;;;;;6.22;3.90;;;28.80;93.90;;;;;;1943053;73;21103;-69
2021/06/28 11:54:18;;;;;;;4.30;3.90;;;28.80;93.70;;;;;;1938213;73;21046;-69
2021/06/28 11:56:50;;;;;;;6.85;4.10;;;28.90;94.50;;;;;;1941149;73;21128;-69
2021/06/28 11:59:21;;;;;;;7.20;4.20;;;29.00;92.30;;;;;;1941378;73;21114;-69
2021/06/28 12:01:53;;;;;;;6.78;4.17;;;29.00;92.80;;;;;;1942582;73;21091;-70
2021/06/28 12:04:27;;;;;;;5.42;4.22;;;29.00;92.80;;;;;;1937019;73;21601;-69
2021/06/28 12:06:56;;;;;;;7.60;4.58;;;29.10;92.90;;;;;;1877527;72;21227;-74
2021/06/28 12:09:25;;;;;;;5.25;4.10;;;29.10;94.10;;;;;;1838950;75;21178;-74
2021/06/28 12:11:55;;;;;;;4.97;4.37;;;29.10;93.00;;;;;;1856809;75;21098;-73
2021/06/28 12:14:52;;;;;;;6.00;4.40;;;29.10;93.70;;;;;;1850633;75;21079;-74
2021/06/28 12:17:24;;;;;;;5.67;4.28;;;29.20;93.70;;;;;;1849016;75;21200;-73
2021/06/28 12:20:00;;;;;;;5.72;4.35;;;29.20;93.70;;;;;;1850011;76;21096;-72
2021/06/28 12:22:31;;;;;;;6.72;4.60;;;29.20;94.20;;;;;;1846529;76;21141;-73
2021/06/28 12:25:00;;;;;;;5.65;4.25;;;29.30;93.70;;;;;;1844483;77;21086;-75
2021/06/28 12:27:30;;;;;;;6.28;4.78;;;29.30;92.90;;;;;;1856305;76;21130;-74
2021/06/28 12:29:58;;;;;;;7.05;4.40;;;29.40;94.40;;;;;;1846545;75;21051;-74
2021/06/28 12:32:31;;;;;;;9.50;3.95;;;29.50;93.70;;;;;;1841109;76;21030;-74
2021/06/28 12:35:04;;;;;;;6.75;4.30;;;29.60;94.00;;;;;;1853299;76;21039;-74
2021/06/28 12:37:37;;;;;;;6.00;4.30;;;29.70;92.90;;;;;;1858221;76;21115;-74
2021/06/28 12:40:35;;;;;;;8.78;3.92;;;29.70;93.20;;;;;;1850700;75;21041;-74
2021/06/28 12:43:09;;;;;;;5.28;3.70;;;29.80;93.70;;;;;;1848926;75;21090;-74
2021/06/28 12:45:39;;;;;;;7.40;4.12;;;29.80;92.30;;;;;;1855150;75;21016;-74
2021/06/28 12:48:08;;;;;;;7.47;4.90;;;29.80;92.50;;;;;;1841920;75;21635;-74
2021/06/28 12:50:38;;;;;;;4.97;4.45;;;29.80;92.30;;;;;;1846886;75;21145;-74
2021/06/28 12:53:19;;;;;;;6.80;4.40;;;29.80;91.90;;;;;;1850609;75;21223;-74
2021/06/28 12:55:48;;;;;;;4.70;3.90;;;29.70;91.70;;;;;;1852257;76;21089;-74